createdAt,value
2018-06-04T00:00:03.369Z,99.90
2018-06-04T00:02:31.880Z,99.90
2018-06-04T00:05:00.336Z,99.90
2018-06-04T00:07:28.872Z,99.90
2018-06-04T00:09:58.241Z,99.90
2018-06-04T00:12:26.728Z,99.90
2018-06-04T00:14:55.187Z,99.90
2018-06-04T00:18:44.136Z,99.90
2018-06-04T00:21:12.669Z,99.90
2018-06-04T00:23:41.160Z,99.90
2018-06-04T00:26:09.649Z,99.90
2018-06-04T00:28:38.124Z,99.90
2018-06-04T00:31:06.632Z,99.90
2018-06-04T00:36:03.353Z,99.90
2018-06-04T00:38:31.880Z,99.90
2018-06-04T00:43:28.499Z,99.90
2018-06-04T00:45:56.980Z,99.90
2018-06-04T00:48:25.456Z,99.90
2018-06-04T00:50:53.908Z,99.90
2018-06-04T00:53:22.420Z,99.90
2018-06-04T00:56:02.191Z,99.90
2018-06-04T00:58:30.700Z,99.90
2018-06-04T01:00:59.099Z,99.90
2018-06-04T01:03:27.657Z,99.90
2018-06-04T01:05:56.211Z,99.90
2018-06-04T01:08:24.673Z,99.90
2018-06-04T01:10:53.128Z,99.90
2018-06-04T01:13:21.636Z,99.90
2018-06-04T01:15:50.089Z,99.90
2018-06-04T01:18:18.579Z,99.90
2018-06-04T01:20:47.078Z,99.90
2018-06-04T01:23:15.664Z,99.90
2018-06-04T01:25:44.124Z,99.90
2018-06-04T01:28:12.636Z,99.90
2018-06-04T01:30:41.124Z,99.90
2018-06-04T01:33:09.601Z,99.90
2018-06-04T01:35:38.120Z,99.90
2018-06-04T01:43:02.904Z,99.90
2018-06-04T01:45:31.432Z,99.90
2018-06-04T01:47:59.944Z,99.90
2018-06-04T01:50:28.460Z,99.90
2018-06-04T01:52:56.931Z,99.90
2018-06-04T01:55:25.475Z,99.90
2018-06-04T01:57:54.000Z,99.90
2018-06-04T02:00:22.496Z,99.90
2018-06-04T02:02:50.960Z,99.90
2018-06-04T02:05:19.434Z,99.90
2018-06-04T02:07:48.932Z,99.90
2018-06-04T02:10:18.467Z,99.90
2018-06-04T02:12:46.932Z,99.90
2018-06-04T02:15:15.454Z,99.90
2018-06-04T02:20:12.083Z,99.90
2018-06-04T02:22:40.672Z,99.90
2018-06-04T02:25:09.171Z,99.90
2018-06-04T02:27:37.615Z,99.90
2018-06-04T02:30:06.152Z,99.90
2018-06-04T02:35:02.768Z,99.90
2018-06-04T02:37:31.255Z,99.90
2018-06-04T02:39:59.715Z,99.90
2018-06-04T02:42:28.213Z,99.90
2018-06-04T02:44:56.700Z,99.90
2018-06-04T02:47:25.174Z,99.90
2018-06-04T02:49:53.719Z,99.90
2018-06-04T02:52:22.140Z,99.90
2018-06-04T02:54:50.607Z,99.90
2018-06-04T02:57:19.116Z,99.90
2018-06-04T02:59:47.576Z,99.90
2018-06-04T03:02:16.071Z,99.90
2018-06-04T03:04:44.569Z,99.90
2018-06-04T03:07:13.127Z,99.90
2018-06-04T03:09:41.620Z,99.90
2018-06-04T03:12:10.128Z,99.90
2018-06-04T03:17:06.756Z,99.90
2018-06-04T03:19:35.235Z,99.90
2018-06-04T03:22:03.756Z,99.90
2018-06-04T03:27:00.373Z,99.90
2018-06-04T03:29:28.892Z,99.90
2018-06-04T03:34:25.500Z,99.90
2018-06-04T03:36:54.059Z,99.90
2018-06-04T03:39:22.584Z,99.90
2018-06-04T03:41:51.085Z,99.90
2018-06-04T03:44:19.532Z,99.90
2018-06-04T03:46:48.052Z,99.90
2018-06-04T03:51:44.775Z,99.90
2018-06-04T03:54:13.285Z,99.90
2018-06-04T04:01:38.181Z,99.90
2018-06-04T04:04:07.702Z,99.90
2018-06-04T04:06:36.584Z,99.90
2018-06-04T04:09:08.277Z,99.90
2018-06-04T04:14:05.216Z,99.90
2018-06-04T04:16:33.706Z,99.90
2018-06-04T04:19:02.222Z,99.90
2018-06-04T04:23:58.864Z,99.90
2018-06-04T04:36:20.112Z,99.90
2018-06-04T04:38:48.620Z,99.90
2018-06-04T04:43:45.352Z,99.90
2018-06-04T04:46:14.057Z,99.90
2018-06-04T04:51:11.260Z,99.90
2018-06-04T04:53:39.668Z,99.90
2018-06-04T04:56:08.339Z,99.90
2018-06-04T04:58:36.914Z,99.90
2018-06-04T05:01:05.379Z,99.90
2018-06-04T05:06:02.018Z,99.90
2018-06-04T05:08:30.486Z,99.90
2018-06-04T05:10:59.057Z,99.90
2018-06-04T05:13:27.588Z,99.90
2018-06-04T05:18:24.325Z,99.90
2018-06-04T05:20:52.798Z,99.90
2018-06-04T05:23:21.296Z,99.90
2018-06-04T05:28:17.918Z,99.90
2018-06-04T05:30:46.412Z,99.90
2018-06-04T05:33:14.891Z,99.90
2018-06-04T05:35:43.534Z,99.90
2018-06-04T05:38:12.056Z,99.90
2018-06-04T05:40:40.502Z,99.90
2018-06-04T05:43:09.951Z,99.90
2018-06-04T05:45:38.439Z,99.90
2018-06-04T05:48:06.914Z,99.90
2018-06-04T05:50:35.384Z,99.90
2018-06-04T05:53:03.911Z,99.90
2018-06-04T05:58:00.593Z,99.90
2018-06-04T06:00:29.148Z,99.90
2018-06-04T06:05:25.832Z,99.90
2018-06-04T06:07:54.352Z,99.90
2018-06-04T06:10:22.854Z,99.90
2018-06-04T06:15:19.498Z,99.90
2018-06-04T06:17:47.952Z,99.90
2018-06-04T06:20:16.448Z,99.90
2018-06-04T06:22:45.243Z,99.90
2018-06-04T06:25:13.820Z,99.90
2018-06-04T06:27:42.300Z,99.90
2018-06-04T06:30:10.801Z,99.90
2018-06-04T06:32:39.294Z,99.90
2018-06-04T06:35:07.769Z,99.90
2018-06-04T06:37:36.217Z,99.90
2018-06-04T06:40:04.777Z,99.90
2018-06-04T06:42:33.361Z,99.90
2018-06-04T06:45:01.885Z,99.90
2018-06-04T06:47:30.360Z,99.90
2018-06-04T06:49:58.824Z,99.90
2018-06-04T06:52:27.316Z,99.90
2018-06-04T06:54:55.801Z,99.90
2018-06-04T06:57:24.290Z,99.90
2018-06-04T06:59:52.740Z,99.90
2018-06-04T07:02:21.278Z,99.90
2018-06-04T07:09:46.092Z,99.90
2018-06-04T07:12:14.732Z,99.90
2018-06-04T07:14:43.268Z,99.90
2018-06-04T07:17:11.760Z,99.90
2018-06-04T07:22:08.517Z,99.90
2018-06-04T07:24:36.975Z,99.90
2018-06-04T07:27:05.459Z,99.90
2018-06-04T07:29:33.942Z,99.90
2018-06-04T07:32:02.396Z,99.90
2018-06-04T07:34:30.879Z,99.90
2018-06-04T07:36:59.380Z,99.90
2018-06-04T07:39:27.852Z,99.90
2018-06-04T07:41:56.332Z,99.90
2018-06-04T07:44:24.894Z,99.90
2018-06-04T07:46:53.417Z,99.90
2018-06-04T07:49:21.883Z,99.90
2018-06-04T07:51:50.396Z,99.90
2018-06-04T07:54:18.980Z,99.90
2018-06-04T07:56:47.428Z,99.90
2018-06-04T07:59:15.938Z,99.90
2018-06-04T08:01:44.393Z,99.90
2018-06-04T08:04:12.992Z,99.90
2018-06-04T08:09:09.652Z,99.90
2018-06-04T08:11:38.121Z,99.90
2018-06-04T08:14:06.642Z,99.90
2018-06-04T08:16:35.080Z,99.90
2018-06-04T08:19:03.617Z,99.90
2018-06-04T08:21:32.056Z,99.90
2018-06-04T08:24:00.558Z,99.90
2018-06-04T08:26:29.032Z,99.90
2018-06-04T08:28:57.471Z,99.90
2018-06-04T08:31:25.995Z,99.90
2018-06-04T08:33:54.420Z,99.90
2018-06-04T08:36:22.951Z,99.90
2018-06-04T08:38:51.397Z,99.90
2018-06-04T08:41:19.897Z,99.90
2018-06-04T08:43:48.373Z,99.90
2018-06-04T08:46:16.935Z,99.90
2018-06-04T08:48:45.474Z,99.90
2018-06-04T08:51:13.944Z,99.90
2018-06-04T08:53:42.596Z,99.90
2018-06-04T08:56:11.306Z,99.90
2018-06-04T08:58:39.775Z,99.90
2018-06-04T09:01:08.425Z,99.90
2018-06-04T09:03:36.873Z,99.90
2018-06-04T09:06:05.424Z,99.90
2018-06-04T09:08:33.929Z,99.90
2018-06-04T09:11:02.422Z,99.90
2018-06-04T09:13:30.952Z,99.90
2018-06-04T09:15:59.456Z,99.90
2018-06-04T09:18:27.953Z,99.90
2018-06-04T09:20:56.500Z,99.90
2018-06-04T09:23:25.068Z,99.90
2018-06-04T09:25:53.523Z,99.90
2018-06-04T09:28:21.955Z,99.90
2018-06-04T09:30:50.467Z,99.90
2018-06-04T09:33:18.976Z,99.90
2018-06-04T09:38:15.900Z,99.90
2018-06-04T09:40:44.403Z,99.10
2018-06-04T09:43:12.951Z,98.90
2018-06-04T09:45:41.447Z,99.20
2018-06-04T09:48:10.097Z,98.60
2018-06-04T09:50:38.583Z,98.60
2018-06-04T09:53:07.113Z,98.70
2018-06-04T09:55:35.573Z,98.80
2018-06-04T09:58:05.289Z,98.60
2018-06-04T10:00:35.223Z,98.30
2018-06-04T10:03:04.651Z,97.90
2018-06-04T10:08:01.415Z,97.80
2018-06-04T10:12:58.187Z,96.80
2018-06-04T10:15:26.703Z,96.40
2018-06-04T10:17:55.178Z,96.30
2018-06-04T10:20:23.758Z,96.30
2018-06-04T10:22:52.248Z,96.20
2018-06-04T10:25:20.800Z,95.80
2018-06-04T10:27:49.274Z,96.00
2018-06-04T10:30:17.707Z,95.90
2018-06-04T10:32:46.190Z,95.00
2018-06-04T10:35:14.804Z,94.50
2018-06-04T10:37:43.233Z,94.00
2018-06-04T10:40:11.711Z,94.00
2018-06-04T10:42:40.200Z,94.00
2018-06-04T10:45:08.783Z,94.40
2018-06-04T10:47:37.346Z,94.30
2018-06-04T10:50:05.933Z,94.50
2018-06-04T10:52:34.485Z,94.30
2018-06-04T10:57:31.211Z,94.20
2018-06-04T10:59:59.752Z,94.10
2018-06-04T11:02:28.264Z,93.40
2018-06-04T11:04:56.847Z,93.20
2018-06-04T11:07:25.451Z,93.00
2018-06-04T11:09:53.908Z,92.60
2018-06-04T11:12:22.432Z,92.80
2018-06-04T11:14:50.883Z,92.30
2018-06-04T11:17:19.396Z,91.90
2018-06-04T11:19:47.932Z,91.30
2018-06-04T11:22:16.501Z,91.40
2018-06-04T11:24:45.051Z,91.30
2018-06-04T11:27:13.548Z,91.20
2018-06-04T11:32:10.156Z,91.00
2018-06-04T11:34:38.696Z,91.00
2018-06-04T11:37:07.203Z,90.40
2018-06-04T11:39:35.809Z,90.40
2018-06-04T11:43:07.658Z,90.90
2018-06-04T11:45:36.185Z,90.40
2018-06-04T11:48:04.656Z,89.10
2018-06-04T11:50:33.208Z,90.10
2018-06-04T11:53:01.721Z,90.20
2018-06-04T11:55:30.330Z,89.30
2018-06-04T12:00:26.903Z,90.50
2018-06-04T12:02:55.438Z,90.00
2018-06-04T12:05:23.918Z,85.80
2018-06-04T12:07:52.448Z,86.50
2018-06-04T12:10:20.861Z,87.50
2018-06-04T12:12:49.399Z,87.40
2018-06-04T12:15:17.825Z,89.20
2018-06-04T12:17:46.439Z,86.40
2018-06-04T12:20:14.975Z,87.80
2018-06-04T12:22:43.485Z,86.50
2018-06-04T12:25:12.358Z,88.40
2018-06-04T12:27:40.891Z,89.50
2018-06-04T12:30:09.378Z,88.40
2018-06-04T12:35:06.347Z,87.90
2018-06-04T12:40:03.120Z,86.20
2018-06-04T12:42:31.599Z,85.20
2018-06-04T12:47:28.417Z,84.70
2018-06-04T12:49:56.907Z,83.50
2018-06-04T12:52:25.447Z,83.70
2018-06-04T12:54:53.952Z,81.20
2018-06-04T12:57:22.447Z,79.60
2018-06-04T12:59:50.941Z,79.40
2018-06-04T13:02:19.579Z,79.20
2018-06-04T13:04:48.193Z,80.20
2018-06-04T13:07:16.667Z,81.70
2018-06-04T13:09:45.800Z,83.10
2018-06-04T13:12:14.390Z,84.10
2018-06-04T13:14:42.825Z,85.20
2018-06-04T13:17:12.359Z,87.10
2018-06-04T13:19:40.866Z,87.50
2018-06-04T13:29:33.912Z,84.80
2018-06-04T13:32:02.483Z,86.30
2018-06-04T13:34:31.029Z,86.70
2018-06-04T13:36:59.524Z,86.90
2018-06-04T13:41:56.232Z,88.70
2018-06-04T13:44:24.722Z,88.70
2018-06-04T13:46:53.281Z,86.30
2018-06-04T13:49:21.971Z,84.60
2018-06-04T13:51:50.475Z,82.70
2018-06-04T13:54:18.991Z,82.40
2018-06-04T13:59:15.805Z,82.00
2018-06-04T14:01:45.394Z,82.50
2018-06-04T14:04:13.975Z,81.40
2018-06-04T14:06:42.600Z,82.80
2018-06-04T14:09:11.314Z,83.50
2018-06-04T14:16:36.319Z,78.00
2018-06-04T14:19:04.825Z,76.50
2018-06-04T14:21:33.325Z,76.60
2018-06-04T14:24:01.932Z,78.70
2018-06-04T14:26:31.483Z,79.90
2018-06-04T14:29:00.112Z,80.00
2018-06-04T14:31:28.747Z,81.40
2018-06-04T14:33:57.292Z,82.80
2018-06-04T14:36:26.288Z,83.60
2018-06-04T14:38:54.820Z,84.00
2018-06-04T14:41:23.331Z,82.50
2018-06-04T14:43:51.835Z,83.10
2018-06-04T14:46:20.379Z,81.90
2018-06-04T14:48:48.867Z,82.30
2018-06-04T14:53:47.911Z,82.90
2018-06-04T14:56:16.504Z,83.10
2018-06-04T14:58:45.085Z,82.20
2018-06-04T15:01:13.585Z,82.90
